Canford Heath, United Kingdom
Current Conditions -  °F | °C
As of 4:20 PM on Wednesday 22 Oct 2014 (Local Time) from EGHH Reporting Station
Broken Clouds Broken Clouds  
Wind Chill: 55°   Ceiling: 3100
Heat Index: 55°   Visibility: 6mi
Dew Point: 46°   Wind: 12mph
Humidity: 72%   Direction: 270°W
Pressure: 30.27"   Gusts: NA
Location:  50.75°N, 1.97°W
Report Text: EGHH 221520Z 27010KT 9999 BKN031 13/08 Q1025
Loading
Personal Weather Stations






























Interactive Weather Map
Tropical Storm Tracking
New forecast layout! Learn more

10-Day Weather Forecast

Advertisements
Track Severe Weather on mobile